createdAt,value
2022-10-17T00:01:08.821Z,64.63
2022-10-17T00:03:37.528Z,64.54
2022-10-17T00:06:13.335Z,64.88
2022-10-17T00:08:42.090Z,64.94
2022-10-17T00:11:15.093Z,64.62
2022-10-17T00:13:45.169Z,64.82
2022-10-17T00:16:13.223Z,65.56
2022-10-17T00:18:41.693Z,64.59
2022-10-17T00:21:17.209Z,64.58
2022-10-17T00:23:45.337Z,64.26
2022-10-17T00:26:12.775Z,64.55
2022-10-17T00:28:40.507Z,64.29
2022-10-17T00:31:08.720Z,65.39
2022-10-17T00:33:36.584Z,65.10
2022-10-17T00:36:10.363Z,64.77
2022-10-17T00:38:37.984Z,65.45
2022-10-17T00:41:06.177Z,65.41
2022-10-17T00:43:53.890Z,65.57
2022-10-17T00:46:22.814Z,64.95
2022-10-17T00:48:52.945Z,65.64
2022-10-17T00:51:25.617Z,65.09
2022-10-17T00:53:53.210Z,64.89
2022-10-17T00:56:22.222Z,65.25
2022-10-17T00:58:50.605Z,65.12
2022-10-17T01:01:18.177Z,65.06
2022-10-17T01:03:45.694Z,65.06
2022-10-17T01:06:13.223Z,64.59
2022-10-17T01:08:42.209Z,65.00
2022-10-17T01:11:34.012Z,65.17
2022-10-17T01:14:39.737Z,65.55
2022-10-17T01:17:30.730Z,66.16
2022-10-17T01:20:22.814Z,65.59
2022-10-17T01:23:22.469Z,65.64
2022-10-17T01:26:08.314Z,65.01
2022-10-17T01:28:57.358Z,65.93
2022-10-17T01:31:37.956Z,65.32
2022-10-17T01:34:12.640Z,65.91
2022-10-17T01:36:50.022Z,65.80
2022-10-17T01:39:38.375Z,65.89
2022-10-17T01:42:25.460Z,65.92
2022-10-17T01:44:58.724Z,66.71
2022-10-17T01:47:31.013Z,66.25
2022-10-17T01:50:11.043Z,66.77
2022-10-17T01:52:46.826Z,66.72
2022-10-17T01:55:36.660Z,66.54
2022-10-17T01:58:10.314Z,66.69
2022-10-17T02:00:40.230Z,66.34
2022-10-17T02:03:10.097Z,66.09
2022-10-17T02:05:42.861Z,66.46
2022-10-17T02:08:11.353Z,66.61
2022-10-17T02:11:04.827Z,67.26
2022-10-17T02:13:35.163Z,67.04
2022-10-17T02:16:15.924Z,66.81
2022-10-17T02:19:18.956Z,66.35
2022-10-17T02:22:06.376Z,67.17
2022-10-17T02:24:49.695Z,67.68
2022-10-17T02:27:23.766Z,67.11
2022-10-17T02:29:59.366Z,67.73
2022-10-17T02:32:37.392Z,67.02
2022-10-17T02:35:09.629Z,67.28
2022-10-17T02:37:39.072Z,67.41
2022-10-17T02:40:08.929Z,67.70
2022-10-17T02:42:41.250Z,67.02
2022-10-17T02:45:10.157Z,66.76
2022-10-17T02:47:42.311Z,66.99
2022-10-17T02:50:10.421Z,67.65
2022-10-17T02:53:01.813Z,68.22
2022-10-17T02:55:36.574Z,67.75
2022-10-17T02:58:09.212Z,68.13
2022-10-17T03:00:42.107Z,68.47
2022-10-17T03:03:28.842Z,68.27
2022-10-17T03:06:00.539Z,67.65
2022-10-17T03:08:28.264Z,67.33
2022-10-17T03:10:56.940Z,67.56
2022-10-17T03:13:25.991Z,68.57
2022-10-17T03:15:53.535Z,67.80
2022-10-17T03:18:20.980Z,68.47
2022-10-17T03:20:50.413Z,68.02
2022-10-17T03:23:17.875Z,68.16
2022-10-17T03:25:46.617Z,68.75
2022-10-17T03:28:15.966Z,67.89
2022-10-17T03:30:44.527Z,68.86
2022-10-17T03:33:11.980Z,68.04
2022-10-17T03:35:43.076Z,68.12
2022-10-17T03:38:10.925Z,68.96
2022-10-17T03:40:38.420Z,68.46
2022-10-17T03:43:06.194Z,68.73
2022-10-17T03:45:33.989Z,69.86
2022-10-17T03:48:02.106Z,69.28
2022-10-17T03:50:30.946Z,69.49
2022-10-17T03:53:00.399Z,69.82
2022-10-17T03:55:28.064Z,69.25
2022-10-17T03:57:58.331Z,69.18
2022-10-17T04:00:25.830Z,69.63
2022-10-17T04:02:58.756Z,69.69
2022-10-17T04:05:27.027Z,69.46
2022-10-17T04:07:54.612Z,68.60
2022-10-17T04:10:31.826Z,68.13
2022-10-17T04:12:59.826Z,67.07
2022-10-17T04:15:27.294Z,66.69
2022-10-17T04:17:55.359Z,66.18
2022-10-17T04:20:23.082Z,65.48
2022-10-17T04:22:51.392Z,64.86
2022-10-17T04:25:19.091Z,64.05
2022-10-17T04:27:49.424Z,62.96
2022-10-17T04:30:17.488Z,63.19
2022-10-17T04:32:46.088Z,62.54
2022-10-17T04:35:21.052Z,61.92
2022-10-17T04:37:56.814Z,60.53
2022-10-17T04:40:25.767Z,60.11
2022-10-17T04:42:54.066Z,60.18
2022-10-17T04:45:26.519Z,59.78
2022-10-17T04:48:00.987Z,60.10
2022-10-17T04:50:30.586Z,60.15
2022-10-17T04:53:28.800Z,59.67
2022-10-17T04:55:56.312Z,60.22
2022-10-17T04:58:24.874Z,59.87
2022-10-17T05:00:52.771Z,59.69
2022-10-17T05:03:23.551Z,60.04
2022-10-17T05:05:51.327Z,60.36
2022-10-17T05:08:18.886Z,60.21
2022-10-17T05:10:46.621Z,60.95
2022-10-17T05:13:15.020Z,60.41
2022-10-17T05:15:42.899Z,60.92
2022-10-17T05:18:11.863Z,61.17
2022-10-17T05:20:49.099Z,60.81
2022-10-17T05:23:20.900Z,61.09
2022-10-17T05:26:16.222Z,61.78
2022-10-17T05:28:44.668Z,63.59
2022-10-17T05:31:13.061Z,64.59
2022-10-17T05:34:23.199Z,64.30
2022-10-17T05:36:52.478Z,63.14
2022-10-17T05:39:44.456Z,61.60
2022-10-17T05:42:37.462Z,60.23
2022-10-17T05:45:08.426Z,60.53
2022-10-17T05:47:36.208Z,59.12
2022-10-17T05:50:24.960Z,58.55
2022-10-17T05:53:28.575Z,58.67
2022-10-17T05:56:21.139Z,56.97
2022-10-17T05:58:55.208Z,55.97
2022-10-17T06:01:51.087Z,54.56
2022-10-17T06:04:21.687Z,53.66
2022-10-17T06:07:09.430Z,52.91
2022-10-17T06:12:23.435Z,51.76
2022-10-17T06:14:51.501Z,51.88
2022-10-17T06:17:23.946Z,50.75
2022-10-17T06:19:58.856Z,50.48
2022-10-17T06:22:26.615Z,49.66
2022-10-17T06:25:15.625Z,48.94
2022-10-17T06:27:48.104Z,49.16
2022-10-17T06:30:15.783Z,49.11
2022-10-17T06:32:43.546Z,48.31
2022-10-17T06:35:11.576Z,47.81
2022-10-17T06:37:52.853Z,46.25
2022-10-17T06:40:31.316Z,45.48
2022-10-17T06:43:01.814Z,45.40
2022-10-17T06:45:44.039Z,45.36
2022-10-17T06:48:41.290Z,46.15
2022-10-17T06:51:42.353Z,45.28
2022-10-17T06:54:30.354Z,45.50
2022-10-17T07:02:13.823Z,43.31
2022-10-17T07:04:55.986Z,45.52
2022-10-17T07:10:23.613Z,42.86
2022-10-17T07:12:54.014Z,43.31
2022-10-17T07:15:31.288Z,43.24
2022-10-17T07:17:59.037Z,42.94
2022-10-17T07:20:29.473Z,43.76
2022-10-17T07:23:02.131Z,42.89
2022-10-17T07:25:36.495Z,41.99
2022-10-17T07:28:29.117Z,41.71
2022-10-17T07:31:39.990Z,40.62
2022-10-17T07:34:31.657Z,39.22
2022-10-17T07:37:12.819Z,37.66
2022-10-17T07:39:51.454Z,38.45
2022-10-17T07:42:21.159Z,38.47
2022-10-17T07:44:51.773Z,38.55
2022-10-17T07:47:22.997Z,37.70
2022-10-17T07:49:56.706Z,36.26
2022-10-17T07:52:24.642Z,37.17
2022-10-17T07:54:56.742Z,36.92
2022-10-17T07:57:29.934Z,37.33
2022-10-17T08:00:15.358Z,34.50
2022-10-17T08:02:45.521Z,35.99
2022-10-17T08:05:16.132Z,35.83
2022-10-17T08:07:52.618Z,35.68
2022-10-17T08:10:20.822Z,35.22
2022-10-17T08:15:40.368Z,34.42
2022-10-17T08:18:12.154Z,35.05
2022-10-17T08:20:45.591Z,36.08
2022-10-17T08:23:13.383Z,36.11
2022-10-17T08:25:40.939Z,35.29
2022-10-17T08:31:04.049Z,31.97
2022-10-17T08:33:49.717Z,33.20
2022-10-17T08:36:41.380Z,32.66
2022-10-17T08:39:08.951Z,33.65
2022-10-17T08:42:16.882Z,30.98
2022-10-17T08:45:21.592Z,32.12
2022-10-17T08:48:31.117Z,32.86
2022-10-17T08:51:44.211Z,31.18
2022-10-17T08:54:59.704Z,31.83
2022-10-17T08:57:36.917Z,31.96
2022-10-17T09:04:33.942Z,31.79
2022-10-17T09:07:36.331Z,30.96
2022-10-17T09:10:55.371Z,29.56
2022-10-17T09:13:45.879Z,30.86
2022-10-17T09:17:04.644Z,30.28
2022-10-17T09:19:40.687Z,30.78
2022-10-17T09:22:41.183Z,29.41
2022-10-17T09:32:33.900Z,30.44
2022-10-17T09:35:23.470Z,29.47
2022-10-17T09:37:58.049Z,29.27
2022-10-17T09:40:33.198Z,29.03
2022-10-17T09:43:33.643Z,28.57
2022-10-17T09:46:50.293Z,28.49
2022-10-17T09:49:42.913Z,27.22
2022-10-17T09:52:59.364Z,28.39
2022-10-17T09:56:28.344Z,28.43
2022-10-17T10:02:21.620Z,26.97
2022-10-17T10:08:51.581Z,29.49
2022-10-17T10:12:17.811Z,29.45
2022-10-17T11:56:41.842Z,36.33
2022-10-17T12:52:29.865Z,40.36
2022-10-17T12:55:17.028Z,41.04
2022-10-17T12:58:29.945Z,42.13
2022-10-17T13:01:23.151Z,42.10
2022-10-17T13:03:53.071Z,41.89
2022-10-17T13:06:24.861Z,42.09
2022-10-17T13:09:04.127Z,41.92
2022-10-17T13:11:34.342Z,41.90
2022-10-17T13:14:09.713Z,42.51
2022-10-17T13:16:52.783Z,42.87
2022-10-17T13:19:26.098Z,42.50
2022-10-17T13:22:07.301Z,42.44
2022-10-17T13:24:38.128Z,42.85
2022-10-17T13:27:21.380Z,43.06
2022-10-17T13:29:49.607Z,42.67
2022-10-17T13:32:17.144Z,42.88
2022-10-17T13:34:44.635Z,43.56
2022-10-17T13:37:15.742Z,43.84
2022-10-17T13:39:55.118Z,43.93
2022-10-17T13:42:30.768Z,43.94
2022-10-17T13:44:59.866Z,44.43
2022-10-17T13:47:36.925Z,44.75
2022-10-17T13:50:12.701Z,44.38
2022-10-17T13:52:48.740Z,44.33
2022-10-17T13:55:20.433Z,44.87
2022-10-17T13:57:48.609Z,44.76
2022-10-17T14:00:22.097Z,45.39
2022-10-17T14:02:49.701Z,45.33
2022-10-17T14:05:23.520Z,45.85
2022-10-17T14:08:11.427Z,46.38
2022-10-17T14:10:42.612Z,46.47
2022-10-17T14:13:24.313Z,46.58
2022-10-17T14:15:57.006Z,46.44
2022-10-17T14:18:36.427Z,46.93
2022-10-17T14:24:16.033Z,46.83
2022-10-17T14:26:59.466Z,47.14
2022-10-17T14:29:30.478Z,47.22
2022-10-17T14:32:03.023Z,47.17
2022-10-17T14:34:35.153Z,47.09
2022-10-17T14:37:09.286Z,47.39
2022-10-17T14:39:38.752Z,47.18
2022-10-17T14:42:06.496Z,47.22
2022-10-17T14:44:36.994Z,47.72
2022-10-17T14:47:41.650Z,47.52
2022-10-17T14:50:13.136Z,47.89
2022-10-17T14:52:41.109Z,47.85
2022-10-17T14:55:39.556Z,48.36
2022-10-17T14:58:17.975Z,48.44
2022-10-17T15:00:45.546Z,48.47
2022-10-17T15:03:13.986Z,48.25
2022-10-17T15:05:41.775Z,48.68
2022-10-17T15:08:20.575Z,49.01
2022-10-17T15:10:50.148Z,48.87
2022-10-17T15:13:39.965Z,49.05
2022-10-17T15:16:23.411Z,49.46
2022-10-17T15:18:51.866Z,49.21
2022-10-17T15:21:40.559Z,49.52
2022-10-17T15:24:12.138Z,49.50
2022-10-17T15:26:40.609Z,49.93
2022-10-17T15:29:08.238Z,49.77
2022-10-17T15:31:36.227Z,50.02
2022-10-17T15:34:04.822Z,50.26
2022-10-17T15:36:40.803Z,50.65
2022-10-17T15:39:10.143Z,50.46
2022-10-17T15:41:37.984Z,50.87
2022-10-17T15:44:05.611Z,50.96
2022-10-17T15:46:35.988Z,51.31
2022-10-17T15:49:08.605Z,51.61
2022-10-17T15:51:36.254Z,51.56
2022-10-17T15:54:05.945Z,51.88
2022-10-17T15:56:40.597Z,52.07
2022-10-17T15:59:15.536Z,52.49
2022-10-17T16:01:43.208Z,52.48
2022-10-17T16:04:18.141Z,52.31
2022-10-17T16:06:45.748Z,52.44
2022-10-17T16:09:13.697Z,52.61
2022-10-17T16:11:43.718Z,52.72
2022-10-17T16:14:16.170Z,53.09
2022-10-17T16:16:43.891Z,53.08
2022-10-17T16:19:11.962Z,53.13
2022-10-17T16:21:41.457Z,53.47
2022-10-17T16:24:13.171Z,53.28
2022-10-17T16:26:41.301Z,53.52
2022-10-17T16:29:11.822Z,53.89
2022-10-17T16:31:43.771Z,54.37
2022-10-17T16:34:13.805Z,54.22
2022-10-17T16:36:41.454Z,54.49
2022-10-17T16:39:09.133Z,54.37
2022-10-17T16:41:40.152Z,54.64
2022-10-17T16:44:11.428Z,54.65
2022-10-17T16:46:41.758Z,54.64
2022-10-17T16:49:10.486Z,54.50
2022-10-17T16:51:38.073Z,54.79
2022-10-17T16:54:05.586Z,54.80
2022-10-17T16:56:33.877Z,55.00
2022-10-17T16:59:02.380Z,54.93
2022-10-17T17:01:29.836Z,55.04
2022-10-17T17:03:58.002Z,55.06
2022-10-17T17:06:29.062Z,55.32
2022-10-17T17:08:57.815Z,54.84
2022-10-17T17:11:27.257Z,55.42
2022-10-17T17:13:58.549Z,55.04
2022-10-17T17:16:28.007Z,55.13
2022-10-17T17:19:00.732Z,55.22
2022-10-17T17:21:28.502Z,55.16
2022-10-17T17:23:59.477Z,55.34
2022-10-17T17:26:29.051Z,55.19
2022-10-17T17:28:59.355Z,55.94
2022-10-17T17:31:30.505Z,55.69
2022-10-17T17:33:58.763Z,55.99
2022-10-17T17:36:29.386Z,55.74
2022-10-17T17:39:04.751Z,55.79
2022-10-17T17:41:33.133Z,55.74
2022-10-17T17:44:01.749Z,55.74
2022-10-17T17:46:29.405Z,56.33
2022-10-17T17:48:57.187Z,56.73
2022-10-17T17:51:29.421Z,56.15
2022-10-17T17:54:00.000Z,56.20
2022-10-17T17:56:32.540Z,56.38
2022-10-17T17:59:02.428Z,56.56
2022-10-17T18:01:36.658Z,56.66
2022-10-17T18:04:07.290Z,57.33
2022-10-17T18:06:35.308Z,57.58
2022-10-17T18:09:02.945Z,57.66
2022-10-17T18:11:30.520Z,57.64
2022-10-17T18:14:00.418Z,58.12
2022-10-17T18:16:29.458Z,58.06
2022-10-17T18:18:58.754Z,57.73
2022-10-17T18:21:27.856Z,58.23
2022-10-17T18:23:55.312Z,58.79
2022-10-17T18:26:23.447Z,59.15
2022-10-17T18:28:51.059Z,58.58
2022-10-17T18:31:24.542Z,58.66
2022-10-17T18:33:53.711Z,58.95
2022-10-17T18:36:22.330Z,58.83
2022-10-17T18:38:50.422Z,58.81
2022-10-17T18:41:20.371Z,58.59
2022-10-17T18:43:49.153Z,59.12
2022-10-17T18:46:29.356Z,59.27
2022-10-17T18:48:56.988Z,58.73
2022-10-17T18:51:25.929Z,58.53
2022-10-17T18:53:58.840Z,58.91
2022-10-17T18:56:27.065Z,58.38
2022-10-17T18:58:55.001Z,59.14
2022-10-17T19:01:26.673Z,58.68
2022-10-17T19:03:57.613Z,58.42
2022-10-17T19:06:30.042Z,59.31
2022-10-17T19:09:01.586Z,59.53
2022-10-17T19:11:31.115Z,59.07
2022-10-17T19:14:01.204Z,59.12
2022-10-17T19:16:31.475Z,60.31
2022-10-17T19:19:14.305Z,60.06
2022-10-17T19:21:44.814Z,60.01
2022-10-17T19:24:19.565Z,60.07
2022-10-17T19:26:50.458Z,60.28
2022-10-17T19:29:18.564Z,60.50
2022-10-17T19:31:47.091Z,60.72
2022-10-17T19:34:16.165Z,61.06
2022-10-17T19:36:43.728Z,61.30
2022-10-17T19:39:14.297Z,61.11
2022-10-17T19:41:46.311Z,61.34
2022-10-17T19:44:14.231Z,61.68
2022-10-17T19:46:45.562Z,61.26
2022-10-17T19:49:13.878Z,61.11
2022-10-17T19:51:41.635Z,61.53
2022-10-17T19:54:09.862Z,61.28
2022-10-17T19:56:43.386Z,61.90
2022-10-17T19:59:13.835Z,61.79
2022-10-17T20:01:41.729Z,62.16
2022-10-17T20:04:11.102Z,62.06
2022-10-17T20:06:39.766Z,61.70
2022-10-17T20:09:11.023Z,61.96
2022-10-17T20:11:41.524Z,62.14
2022-10-17T20:14:09.041Z,61.95
2022-10-17T20:16:37.096Z,61.69
2022-10-17T20:19:10.494Z,61.65
2022-10-17T20:21:39.835Z,62.13
2022-10-17T20:24:10.147Z,62.42
2022-10-17T20:26:39.349Z,61.33
2022-10-17T20:29:16.707Z,62.62
2022-10-17T20:31:45.706Z,62.27
2022-10-17T20:34:17.689Z,62.64
2022-10-17T20:36:46.032Z,61.76
2022-10-17T20:39:15.227Z,62.35
2022-10-17T20:41:43.587Z,62.15
2022-10-17T20:44:11.772Z,61.93
2022-10-17T20:47:00.830Z,61.70
2022-10-17T20:49:27.508Z,61.49
2022-10-17T20:51:54.961Z,62.21
2022-10-17T20:54:22.657Z,61.66
2022-10-17T20:56:51.191Z,61.81
2022-10-17T20:59:18.693Z,62.21
2022-10-17T21:01:47.288Z,62.32
2022-10-17T21:04:44.700Z,62.15
2022-10-17T21:07:02.560Z,61.61
2022-10-17T21:09:31.440Z,61.76
2022-10-17T21:11:58.861Z,61.70
2022-10-17T21:14:26.525Z,61.96
2022-10-17T21:16:53.950Z,62.17
2022-10-17T21:19:24.163Z,61.85
2022-10-17T21:21:51.661Z,61.96
2022-10-17T21:24:20.974Z,62.83
2022-10-17T21:26:55.638Z,62.34
2022-10-17T21:29:26.239Z,62.22
2022-10-17T21:31:53.762Z,62.63
2022-10-17T21:34:25.250Z,62.96
2022-10-17T21:36:53.557Z,62.63
2022-10-17T21:39:22.234Z,63.55
2022-10-17T21:41:49.764Z,63.53
2022-10-17T21:44:19.767Z,63.55
2022-10-17T21:46:48.910Z,63.58
2022-10-17T21:49:18.720Z,63.77
2022-10-17T21:51:47.875Z,64.02
2022-10-17T21:54:16.720Z,63.90
2022-10-17T21:56:44.472Z,64.06
2022-10-17T21:59:12.327Z,63.54
2022-10-17T22:01:42.756Z,64.07
2022-10-17T22:04:15.990Z,64.30
2022-10-17T22:06:45.132Z,64.46
2022-10-17T22:09:21.804Z,65.08
2022-10-17T22:11:55.094Z,65.02
2022-10-17T22:14:27.461Z,65.25
2022-10-17T22:16:55.267Z,65.64
2022-10-17T22:19:25.737Z,65.25
2022-10-17T22:21:53.966Z,64.78
2022-10-17T22:26:54.654Z,64.91
2022-10-17T22:29:25.109Z,65.00
2022-10-17T22:31:52.596Z,65.61
2022-10-17T22:34:20.089Z,65.61
2022-10-17T22:36:49.147Z,66.46
2022-10-17T22:39:17.273Z,66.36
2022-10-17T22:41:44.753Z,66.39
2022-10-17T22:44:12.376Z,66.18
2022-10-17T22:46:42.375Z,66.45
2022-10-17T22:49:10.108Z,66.58
2022-10-17T22:51:37.566Z,66.74
2022-10-17T22:54:05.043Z,66.63
2022-10-17T22:56:32.622Z,66.90
2022-10-17T22:59:00.055Z,67.06
2022-10-17T23:01:27.542Z,67.18
2022-10-17T23:03:55.154Z,67.64
2022-10-17T23:06:22.916Z,67.40
2022-10-17T23:08:50.454Z,67.43
2022-10-17T23:11:18.143Z,67.29
2022-10-17T23:13:45.591Z,67.67
2022-10-17T23:16:13.186Z,67.84
2022-10-17T23:18:40.729Z,67.62
2022-10-17T23:21:08.789Z,68.36
2022-10-17T23:23:37.170Z,68.05
2022-10-17T23:26:10.077Z,68.64
2022-10-17T23:28:38.350Z,68.84
2022-10-17T23:31:20.338Z,69.49
2022-10-17T23:33:49.704Z,69.21
2022-10-17T23:36:19.740Z,68.48
2022-10-17T23:38:49.162Z,69.55
2022-10-17T23:41:17.397Z,69.20
2022-10-17T23:43:45.339Z,69.82
2022-10-17T23:46:12.831Z,69.77
2022-10-17T23:48:41.099Z,69.81
2022-10-17T23:51:09.849Z,69.80
2022-10-17T23:53:38.701Z,69.53
2022-10-17T23:56:07.374Z,69.13
2022-10-17T23:58:35.444Z,69.76
